Terminal Aerodrome Forecast
Issued by NWS

Home | Current Version | Previous Version | Graphics & Text | Print | Product List | Glossary On
Versions: 1 2 3 4 5 6 7 8 9 10 11 12 13 14 15 16 17 18 19 20 21 22
208
FTUS42 KMHX 170535 CCA
TAFPGV
TAF COR
KPGV 170535Z 1706/1806 00000KT 5SM BR SCT090
     FM170800 00000KT 2SM BR OVC008
     FM171300 02005KT P6SM BKN008
     FM171600 02008KT P6SM BKN020
     FM171900 03009KT P6SM BKN070
      AMD LTD TO CLD VIS AND WIND=

USA.gov is the U.S. government's official web portal to all federal, state and local government web resources and services.